createdAt,value
2023-03-16T00:03:53.265Z,98200.00
2023-03-16T00:07:54.700Z,98213.00
2023-03-16T00:11:58.384Z,98212.00
2023-03-16T00:16:03.838Z,98207.00
2023-03-16T00:20:06.573Z,98205.00
2023-03-16T00:24:08.256Z,98203.00
2023-03-16T00:28:09.249Z,98197.00
2023-03-16T00:32:11.186Z,98193.00
2023-03-16T00:36:12.443Z,98181.00
2023-03-16T00:40:15.229Z,98193.00
2023-03-16T00:44:16.356Z,98192.00
2023-03-16T00:48:18.063Z,98192.00
2023-03-16T00:52:19.888Z,98185.00
2023-03-16T00:56:21.046Z,98185.00
2023-03-16T01:00:24.648Z,98184.00
2023-03-16T01:04:25.913Z,98182.00
2023-03-16T01:08:28.937Z,98170.00
2023-03-16T01:12:30.092Z,98182.00
2023-03-16T01:16:33.079Z,98181.00
2023-03-16T01:20:34.137Z,98187.00
2023-03-16T01:24:35.837Z,98174.00
2023-03-16T01:28:37.142Z,98171.00
2023-03-16T01:32:39.346Z,98161.00
2023-03-16T01:36:40.527Z,98153.00
2023-03-16T01:40:41.518Z,98154.00
2023-03-16T01:44:52.377Z,98150.00
2023-03-16T01:49:06.310Z,98138.00
2023-03-16T01:53:09.341Z,98136.00
2023-03-16T01:57:14.020Z,98133.00
2023-03-16T02:01:15.300Z,98129.00
2023-03-16T02:05:23.262Z,98135.00
2023-03-16T02:09:25.926Z,98139.00
2023-03-16T02:13:28.929Z,98151.00
2023-03-16T02:17:31.637Z,98139.00
2023-03-16T02:21:53.551Z,98148.00
2023-03-16T02:26:07.576Z,98131.00
2023-03-16T02:30:12.737Z,98129.00
2023-03-16T02:34:16.116Z,98106.00
2023-03-16T02:38:17.219Z,98109.00
2023-03-16T02:42:23.532Z,98116.00
2023-03-16T02:46:27.736Z,98103.00
2023-03-16T02:50:29.778Z,98102.00
2023-03-16T02:54:31.098Z,98097.00
2023-03-16T02:58:32.268Z,98093.00
2023-03-16T03:02:33.425Z,98085.00
2023-03-16T03:06:34.872Z,98088.00
2023-03-16T03:10:36.131Z,98082.00
2023-03-16T03:14:40.047Z,98082.00
2023-03-16T03:18:41.231Z,98098.00
2023-03-16T03:22:47.719Z,98096.00
2023-03-16T03:26:48.843Z,98084.00
2023-03-16T03:30:50.888Z,98083.00
2023-03-16T03:34:52.333Z,98082.00
2023-03-16T03:38:54.265Z,98097.00
2023-03-16T03:42:55.376Z,98096.00
2023-03-16T03:46:56.402Z,98086.00
2023-03-16T03:50:57.779Z,98086.00
2023-03-16T03:54:58.993Z,98102.00
2023-03-16T03:59:00.086Z,98098.00
2023-03-16T04:03:01.382Z,98087.00
2023-03-16T04:07:03.360Z,98083.00
2023-03-16T04:11:04.824Z,98080.00
2023-03-16T04:15:06.457Z,98085.00
2023-03-16T04:19:07.443Z,98086.00
2023-03-16T04:23:08.504Z,98071.00
2023-03-16T04:27:13.203Z,98082.00
2023-03-16T04:31:14.376Z,98075.00
2023-03-16T04:35:16.995Z,98069.00
2023-03-16T04:39:19.355Z,98055.00
2023-03-16T04:43:20.591Z,98055.00
2023-03-16T04:47:22.677Z,98059.00
2023-03-16T04:51:25.027Z,98067.00
2023-03-16T04:55:26.350Z,98060.00
2023-03-16T04:59:27.518Z,98069.00
2023-03-16T05:03:28.489Z,98068.00
2023-03-16T05:07:29.478Z,98068.00
2023-03-16T05:11:30.563Z,98069.00
2023-03-16T05:15:32.701Z,98049.00
2023-03-16T05:19:34.255Z,98056.00
2023-03-16T05:23:35.220Z,98056.00
2023-03-16T05:27:36.223Z,98059.00
2023-03-16T05:31:37.983Z,98069.00
2023-03-16T05:35:39.160Z,98065.00
2023-03-16T05:39:40.219Z,98054.00
2023-03-16T05:43:41.361Z,98060.00
2023-03-16T05:47:43.128Z,98048.00
2023-03-16T05:52:04.381Z,98049.00
2023-03-16T05:56:06.023Z,98047.00
2023-03-16T06:00:13.696Z,98047.00
2023-03-16T06:08:24.887Z,98051.00
2023-03-16T06:12:26.076Z,98078.00
2023-03-16T06:16:27.475Z,98058.00
2023-03-16T06:20:28.710Z,98056.00
2023-03-16T06:24:30.607Z,98061.00
2023-03-16T06:28:31.791Z,98052.00
2023-03-16T06:32:32.928Z,98050.00
2023-03-16T06:36:34.016Z,98052.00
2023-03-16T06:40:35.008Z,98043.00
2023-03-16T06:44:36.881Z,98066.00
2023-03-16T06:48:38.135Z,98061.00
2023-03-16T06:52:39.423Z,98063.00
2023-03-16T06:56:40.411Z,98056.00
2023-03-16T07:00:42.300Z,98053.00
2023-03-16T07:04:43.429Z,98061.00
2023-03-16T07:08:44.554Z,98052.00
2023-03-16T07:12:46.287Z,98058.00
2023-03-16T07:16:47.241Z,98060.00
2023-03-16T07:20:48.218Z,98076.00
2023-03-16T07:24:51.256Z,98074.00
2023-03-16T07:28:52.455Z,98074.00
2023-03-16T07:32:53.595Z,98072.00
2023-03-16T07:36:54.564Z,98068.00
2023-03-16T07:40:55.556Z,98070.00
2023-03-16T07:44:56.514Z,98075.00
2023-03-16T07:48:57.803Z,98073.00
2023-03-16T07:52:58.761Z,98072.00
2023-03-16T07:57:00.669Z,98065.00
2023-03-16T08:01:01.938Z,98062.00
2023-03-16T08:05:03.361Z,98069.00
2023-03-16T08:09:05.359Z,98069.00
2023-03-16T08:13:06.657Z,98075.00
2023-03-16T08:17:07.865Z,98071.00
2023-03-16T08:21:09.385Z,98066.00
2023-03-16T08:25:10.364Z,98073.00
2023-03-16T08:29:11.502Z,98052.00
2023-03-16T08:33:13.076Z,98073.00
2023-03-16T08:37:15.950Z,98056.00
2023-03-16T08:41:17.251Z,98056.00
2023-03-16T08:45:19.490Z,98053.00
2023-03-16T08:49:20.603Z,98051.00
2023-03-16T08:53:21.793Z,98044.00
2023-03-16T08:57:23.030Z,98045.00
2023-03-16T09:01:25.231Z,98031.00
2023-03-16T09:05:26.357Z,98040.00
2023-03-16T09:09:28.371Z,98048.00
2023-03-16T09:13:30.135Z,98038.00
2023-03-16T09:17:31.132Z,98057.00
2023-03-16T09:21:34.379Z,98044.00
2023-03-16T09:25:35.653Z,98046.00
2023-03-16T09:29:37.089Z,98027.00
2023-03-16T09:33:39.365Z,98005.00
2023-03-16T09:37:45.648Z,98010.00
2023-03-16T09:41:50.115Z,98034.00
2023-03-16T09:45:55.202Z,98024.00
2023-03-16T09:50:02.814Z,98015.00
2023-03-16T09:54:07.850Z,98056.00
2023-03-16T09:58:15.808Z,98031.00
2023-03-16T10:02:32.982Z,98030.00
2023-03-16T10:06:40.936Z,98031.00
2023-03-16T10:11:15.095Z,98050.00
2023-03-16T10:15:20.402Z,98046.00
2023-03-16T10:19:35.206Z,98038.00
2023-03-16T10:23:36.419Z,98029.00
2023-03-16T10:27:40.295Z,98039.00
2023-03-16T10:31:42.311Z,98033.00
2023-03-16T10:35:50.178Z,98033.00
2023-03-16T10:39:51.693Z,98028.00
2023-03-16T10:44:03.828Z,98031.00
2023-03-16T10:48:18.541Z,98027.00
2023-03-16T10:52:35.942Z,98033.00
2023-03-16T10:56:38.060Z,98014.00
2023-03-16T11:00:42.814Z,98015.00
2023-03-16T11:04:43.951Z,98011.00
2023-03-16T11:08:46.444Z,98011.00
2023-03-16T11:12:48.471Z,98011.00
2023-03-16T11:17:09.929Z,98000.00
2023-03-16T11:21:32.147Z,97995.00
2023-03-16T11:25:41.092Z,97996.00
2023-03-16T11:29:54.419Z,97981.00
2023-03-16T11:33:57.181Z,97990.00
2023-03-16T11:38:21.031Z,97996.00
2023-03-16T11:42:31.633Z,97986.00
2023-03-16T11:46:45.783Z,97986.00
2023-03-16T11:51:07.351Z,97977.00
2023-03-16T11:55:28.232Z,97976.00
2023-03-16T11:59:48.977Z,97969.00
2023-03-16T12:03:58.723Z,97960.00
2023-03-16T12:08:16.337Z,97965.00
2023-03-16T12:12:24.193Z,97960.00
2023-03-16T12:16:48.992Z,97973.00
2023-03-16T12:20:53.544Z,97968.00
2023-03-16T12:24:55.014Z,97943.00
2023-03-16T12:28:59.309Z,97934.00
2023-03-16T12:33:05.373Z,97936.00
2023-03-16T12:37:16.485Z,97938.00
2023-03-16T12:41:53.922Z,97933.00
2023-03-16T12:46:13.994Z,97918.00
2023-03-16T12:50:18.310Z,97916.00
2023-03-16T12:54:24.927Z,97903.00
2023-03-16T12:58:26.844Z,97900.00
2023-03-16T13:02:34.099Z,97901.00
2023-03-16T13:06:36.486Z,97906.00
2023-03-16T13:10:38.521Z,97910.00
2023-03-16T13:14:44.017Z,97889.00
2023-03-16T13:18:45.522Z,97904.00
2023-03-16T13:22:50.453Z,97868.00
2023-03-16T13:26:54.301Z,97874.00
2023-03-16T13:30:55.581Z,97872.00
2023-03-16T13:34:59.499Z,97878.00
2023-03-16T13:39:07.225Z,97882.00
2023-03-16T13:43:17.464Z,97870.00
2023-03-16T13:47:20.354Z,97883.00
2023-03-16T13:51:21.965Z,97878.00
2023-03-16T13:55:31.562Z,97878.00
2023-03-16T13:59:33.117Z,97865.00
2023-03-16T14:03:37.885Z,97865.00
2023-03-16T14:07:39.132Z,97847.00
2023-03-16T14:11:42.202Z,97848.00
2023-03-16T14:15:44.944Z,97842.00
2023-03-16T14:19:49.932Z,97828.00
2023-03-16T14:23:54.599Z,97821.00
2023-03-16T14:28:01.115Z,97816.00
2023-03-16T14:32:03.121Z,97812.00
2023-03-16T14:36:16.944Z,97811.00
2023-03-16T14:40:32.552Z,97809.00
2023-03-16T14:44:36.279Z,97799.00
2023-03-16T14:48:37.566Z,97799.00
2023-03-16T14:52:38.814Z,97778.00
2023-03-16T14:56:41.807Z,97794.00
2023-03-16T15:00:52.717Z,97783.00
2023-03-16T15:04:48.084Z,97778.00
2023-03-16T15:08:50.257Z,97798.00
2023-03-16T15:12:53.202Z,97793.00
2023-03-16T15:16:54.277Z,97779.00
2023-03-16T15:20:55.940Z,97790.00
2023-03-16T15:24:58.203Z,97781.00
2023-03-16T15:28:59.175Z,97766.00
2023-03-16T15:33:00.829Z,97759.00
2023-03-16T15:37:02.354Z,97767.00
2023-03-16T15:41:03.624Z,97759.00
2023-03-16T15:45:08.553Z,97753.00
2023-03-16T15:49:09.566Z,97766.00
2023-03-16T15:53:29.622Z,97765.00
2023-03-16T15:57:20.183Z,97737.00
2023-03-16T16:01:24.820Z,97740.00
2023-03-16T16:05:26.069Z,97748.00
2023-03-16T16:09:27.024Z,97741.00
2023-03-16T16:13:42.942Z,97733.00
2023-03-16T16:17:50.613Z,97726.00
2023-03-16T16:21:36.152Z,97725.00
2023-03-16T16:25:41.494Z,97722.00
2023-03-16T16:29:42.520Z,97706.00
2023-03-16T16:33:43.850Z,97714.00
2023-03-16T16:37:45.200Z,97709.00
2023-03-16T16:41:49.269Z,97707.00
2023-03-16T16:45:51.262Z,97709.00
2023-03-16T16:49:52.470Z,97696.00
2023-03-16T16:53:56.552Z,97701.00
2023-03-16T16:57:57.627Z,97694.00
2023-03-16T17:02:01.238Z,97706.00
2023-03-16T17:06:02.244Z,97698.00
2023-03-16T17:10:04.407Z,97692.00
2023-03-16T17:14:06.966Z,97696.00
2023-03-16T17:18:12.584Z,97692.00
2023-03-16T17:22:17.701Z,97685.00
2023-03-16T17:26:22.844Z,97682.00
2023-03-16T17:30:27.284Z,97682.00
2023-03-16T17:34:31.322Z,97685.00
2023-03-16T17:38:33.127Z,97697.00
2023-03-16T17:42:34.448Z,97679.00
2023-03-16T17:46:35.868Z,97691.00
2023-03-16T17:50:36.982Z,97687.00
2023-03-16T17:54:38.022Z,97685.00
2023-03-16T17:58:39.838Z,97676.00
2023-03-16T18:02:53.609Z,97703.00
2023-03-16T18:06:55.199Z,97694.00
2023-03-16T18:10:59.004Z,97677.00
2023-03-16T18:15:00.400Z,97671.00
2023-03-16T18:19:07.265Z,97677.00
2023-03-16T18:23:22.040Z,97671.00
2023-03-16T18:27:23.915Z,97675.00
2023-03-16T18:31:27.794Z,97677.00
2023-03-16T18:35:29.531Z,97674.00
2023-03-16T18:39:32.051Z,97670.00
2023-03-16T18:43:33.093Z,97675.00
2023-03-16T18:47:35.284Z,97670.00
2023-03-16T18:51:36.629Z,97670.00
2023-03-16T18:55:39.838Z,97664.00
2023-03-16T18:59:40.937Z,97665.00
2023-03-16T19:03:43.801Z,97670.00
2023-03-16T19:07:48.177Z,97667.00
2023-03-16T19:11:49.735Z,97665.00
2023-03-16T19:15:52.873Z,97668.00
2023-03-16T19:19:54.041Z,97658.00
2023-03-16T19:23:58.801Z,97658.00
2023-03-16T19:28:00.804Z,97664.00
2023-03-16T19:32:02.367Z,97665.00
2023-03-16T19:36:04.540Z,97665.00
2023-03-16T19:40:07.342Z,97663.00
2023-03-16T19:44:15.643Z,97671.00
2023-03-16T19:48:20.499Z,97664.00
2023-03-16T19:52:22.122Z,97672.00
2023-03-16T19:56:25.580Z,97668.00
2023-03-16T20:00:27.609Z,97653.00
2023-03-16T20:04:28.809Z,97485.00
2023-03-16T20:08:30.437Z,97644.00
2023-03-16T20:12:32.390Z,97642.00
2023-03-16T20:16:34.844Z,97668.00
2023-03-16T20:20:37.070Z,97639.00
2023-03-16T20:24:38.314Z,97650.00
2023-03-16T20:28:40.252Z,97638.00
2023-03-16T20:32:42.519Z,97641.00
2023-03-16T20:36:43.520Z,97635.00
2023-03-16T20:40:46.950Z,97648.00
2023-03-16T20:44:47.968Z,97638.00
2023-03-16T20:48:49.980Z,97627.00
2023-03-16T20:52:52.054Z,97627.00
2023-03-16T20:56:53.190Z,97630.00
2023-03-16T21:01:00.785Z,97625.00
2023-03-16T21:05:04.984Z,97629.00
2023-03-16T21:09:06.052Z,97626.00
2023-03-16T21:13:27.742Z,97623.00
2023-03-16T21:17:35.203Z,97615.00
2023-03-16T21:21:36.951Z,97618.00
2023-03-16T21:25:42.174Z,97599.00
2023-03-16T21:29:43.399Z,97602.00
2023-03-16T21:33:45.030Z,97602.00
2023-03-16T21:37:46.162Z,97592.00
2023-03-16T21:41:49.392Z,97584.00
2023-03-16T21:45:51.522Z,97586.00
2023-03-16T21:49:53.905Z,97587.00
2023-03-16T21:53:55.238Z,97579.00
2023-03-16T21:57:57.614Z,97575.00
2023-03-16T22:02:02.237Z,97586.00
2023-03-16T22:06:02.014Z,97583.00
2023-03-16T22:10:07.524Z,97569.00
2023-03-16T22:14:09.417Z,97571.00
2023-03-16T22:18:20.956Z,97570.00
2023-03-16T22:22:22.232Z,97570.00
2023-03-16T22:26:24.115Z,97558.00
2023-03-16T22:30:27.651Z,97571.00
2023-03-16T22:34:32.537Z,97559.00
2023-03-16T22:38:35.056Z,97551.00
2023-03-16T22:42:38.558Z,97549.00
2023-03-16T22:46:39.627Z,97390.00
2023-03-16T22:50:40.703Z,97526.00
2023-03-16T22:54:42.484Z,97537.00
2023-03-16T22:58:47.390Z,97536.00
2023-03-16T23:02:49.202Z,97543.00
2023-03-16T23:06:52.727Z,97525.00
2023-03-16T23:10:54.699Z,97517.00
2023-03-16T23:14:56.900Z,97525.00
2023-03-16T23:18:58.453Z,97529.00
2023-03-16T23:22:59.772Z,97536.00
2023-03-16T23:27:01.575Z,97516.00
2023-03-16T23:31:02.687Z,97509.00
2023-03-16T23:35:08.242Z,97512.00
2023-03-16T23:39:10.467Z,97521.00
2023-03-16T23:43:11.517Z,97518.00
2023-03-16T23:47:13.134Z,97527.00
2023-03-16T23:51:21.428Z,97509.00
2023-03-16T23:55:23.487Z,97502.00
2023-03-16T23:59:26.006Z,97509.00
